sensor_id;sensor_type;location;lat;lon;timestamp;pressure;altitude;pressure_sealevel;temperature;humidity
13348;BME280;6743;49.934;9.138;2023-07-30T00:01:38;99827.13;;;20.64;100.00
13348;BME280;6743;49.934;9.138;2023-07-30T00:04:04;99846.97;;;20.75;100.00
13348;BME280;6743;49.934;9.138;2023-07-30T00:06:30;99805.84;;;20.51;100.00
13348;BME280;6743;49.934;9.138;2023-07-30T00:08:58;99836.69;;;20.72;100.00
13348;BME280;6743;49.934;9.138;2023-07-30T00:11:24;99849.59;;;20.70;100.00
13348;BME280;6743;49.934;9.138;2023-07-30T00:13:50;99843.38;;;20.69;100.00
13348;BME280;6743;49.934;9.138;2023-07-30T00:16:16;99843.06;;;20.66;100.00
13348;BME280;6743;49.934;9.138;2023-07-30T00:18:42;99832.41;;;20.59;100.00
13348;BME280;6743;49.934;9.138;2023-07-30T00:21:08;99839.44;;;20.60;100.00
13348;BME280;6743;49.934;9.138;2023-07-30T00:23:34;99839.31;;;20.55;100.00
13348;BME280;6743;49.934;9.138;2023-07-30T00:26:00;99839.59;;;20.54;100.00
13348;BME280;6743;49.934;9.138;2023-07-30T00:28:26;99842.16;;;20.49;100.00
13348;BME280;6743;49.934;9.138;2023-07-30T00:30:52;99839.69;;;20.47;100.00
13348;BME280;6743;49.934;9.138;2023-07-30T00:33:18;99836.69;;;20.43;100.00
13348;BME280;6743;49.934;9.138;2023-07-30T00:35:44;99835.53;;;20.39;100.00
13348;BME280;6743;49.934;9.138;2023-07-30T00:38:10;99767.94;;;19.89;100.00
13348;BME280;6743;49.934;9.138;2023-07-30T00:40:40;99837.28;;;20.34;100.00
13348;BME280;6743;49.934;9.138;2023-07-30T00:43:07;99838.38;;;20.33;100.00
13348;BME280;6743;49.934;9.138;2023-07-30T00:45:33;99841.72;;;20.28;100.00
13348;BME280;6743;49.934;9.138;2023-07-30T00:48:00;99845.97;;;20.24;100.00
13348;BME280;6743;49.934;9.138;2023-07-30T00:50:26;99834.41;;;20.12;100.00
13348;BME280;6743;49.934;9.138;2023-07-30T00:52:52;99825.84;;;20.03;100.00
13348;BME280;6743;49.934;9.138;2023-07-30T00:55:18;99853.34;;;20.17;100.00
13348;BME280;6743;49.934;9.138;2023-07-30T00:57:45;99865.91;;;20.12;100.00
13348;BME280;6743;49.934;9.138;2023-07-30T01:00:21;99875.59;;;20.13;100.00
13348;BME280;6743;49.934;9.138;2023-07-30T01:02:58;99871.28;;;20.12;100.00
13348;BME280;6743;49.934;9.138;2023-07-30T01:05:24;99874.53;;;20.14;100.00
13348;BME280;6743;49.934;9.138;2023-07-30T01:07:50;99877.13;;;20.09;100.00
13348;BME280;6743;49.934;9.138;2023-07-30T01:10:16;99890.38;;;20.10;100.00
13348;BME280;6743;49.934;9.138;2023-07-30T01:12:43;99898.66;;;20.09;100.00
13348;BME280;6743;49.934;9.138;2023-07-30T01:15:09;99894.09;;;20.09;100.00
13348;BME280;6743;49.934;9.138;2023-07-30T01:17:36;99892.69;;;20.06;100.00
13348;BME280;6743;49.934;9.138;2023-07-30T01:20:03;99900.91;;;20.12;100.00
13348;BME280;6743;49.934;9.138;2023-07-30T01:22:30;99890.47;;;20.03;100.00
13348;BME280;6743;49.934;9.138;2023-07-30T01:24:56;99907.00;;;20.19;100.00
13348;BME280;6743;49.934;9.138;2023-07-30T01:27:25;99904.84;;;20.21;100.00
13348;BME280;6743;49.934;9.138;2023-07-30T01:29:53;99913.53;;;20.23;100.00
13348;BME280;6743;49.934;9.138;2023-07-30T01:32:25;99911.44;;;20.25;100.00
13348;BME280;6743;49.934;9.138;2023-07-30T01:34:52;99903.34;;;20.25;100.00
13348;BME280;6743;49.934;9.138;2023-07-30T01:37:19;99911.16;;;20.26;100.00
13348;BME280;6743;49.934;9.138;2023-07-30T01:39:48;99913.88;;;20.26;100.00
13348;BME280;6743;49.934;9.138;2023-07-30T01:42:14;99905.56;;;20.28;100.00
13348;BME280;6743;49.934;9.138;2023-07-30T01:44:40;99914.44;;;20.28;100.00
13348;BME280;6743;49.934;9.138;2023-07-30T01:47:07;99915.28;;;20.29;100.00
13348;BME280;6743;49.934;9.138;2023-07-30T01:49:33;99912.56;;;20.29;100.00
13348;BME280;6743;49.934;9.138;2023-07-30T01:51:59;99921.72;;;20.28;100.00
13348;BME280;6743;49.934;9.138;2023-07-30T01:54:25;99914.69;;;20.27;100.00
13348;BME280;6743;49.934;9.138;2023-07-30T01:56:53;99918.91;;;20.23;100.00
13348;BME280;6743;49.934;9.138;2023-07-30T01:59:19;99912.13;;;20.20;100.00
13348;BME280;6743;49.934;9.138;2023-07-30T02:01:45;99921.59;;;20.23;100.00
13348;BME280;6743;49.934;9.138;2023-07-30T02:04:11;99914.81;;;20.20;100.00
13348;BME280;6743;49.934;9.138;2023-07-30T02:06:37;99919.38;;;20.20;100.00
13348;BME280;6743;49.934;9.138;2023-07-30T02:09:03;99919.84;;;20.17;100.00
13348;BME280;6743;49.934;9.138;2023-07-30T02:11:29;99920.91;;;20.16;100.00
13348;BME280;6743;49.934;9.138;2023-07-30T02:13:56;99918.44;;;20.14;100.00
13348;BME280;6743;49.934;9.138;2023-07-30T02:16:22;99908.03;;;20.06;100.00
13348;BME280;6743;49.934;9.138;2023-07-30T02:18:48;99929.72;;;20.11;100.00
13348;BME280;6743;49.934;9.138;2023-07-30T02:21:14;99927.84;;;20.12;100.00
13348;BME280;6743;49.934;9.138;2023-07-30T02:23:40;99936.97;;;20.11;100.00
13348;BME280;6743;49.934;9.138;2023-07-30T02:26:06;99935.31;;;20.10;100.00
13348;BME280;6743;49.934;9.138;2023-07-30T02:28:32;99935.31;;;20.10;100.00
13348;BME280;6743;49.934;9.138;2023-07-30T02:30:58;99941.53;;;20.10;100.00
13348;BME280;6743;49.934;9.138;2023-07-30T02:33:24;99932.63;;;20.10;100.00
13348;BME280;6743;49.934;9.138;2023-07-30T02:35:50;99934.50;;;20.09;100.00
13348;BME280;6743;49.934;9.138;2023-07-30T02:38:16;99935.53;;;20.08;100.00
13348;BME280;6743;49.934;9.138;2023-07-30T02:40:42;99933.09;;;20.06;100.00
13348;BME280;6743;49.934;9.138;2023-07-30T02:43:08;99944.34;;;20.03;100.00
13348;BME280;6743;49.934;9.138;2023-07-30T02:45:34;99941.06;;;20.01;100.00
13348;BME280;6743;49.934;9.138;2023-07-30T02:48:01;99957.44;;;20.00;100.00
13348;BME280;6743;49.934;9.138;2023-07-30T02:50:27;99949.03;;;19.96;100.00
13348;BME280;6743;49.934;9.138;2023-07-30T02:52:53;99939.87;;;19.86;100.00
13348;BME280;6743;49.934;9.138;2023-07-30T02:55:19;99952.16;;;19.93;100.00
13348;BME280;6743;49.934;9.138;2023-07-30T02:57:45;99958.84;;;19.91;100.00
13348;BME280;6743;49.934;9.138;2023-07-30T03:00:11;99962.22;;;19.86;100.00
13348;BME280;6743;49.934;9.138;2023-07-30T03:02:39;99953.09;;;19.87;100.00
13348;BME280;6743;49.934;9.138;2023-07-30T03:05:06;99961.41;;;19.86;100.00
13348;BME280;6743;49.934;9.138;2023-07-30T03:07:32;99959.19;;;19.83;100.00
13348;BME280;6743;49.934;9.138;2023-07-30T03:09:58;99962.09;;;19.81;100.00
13348;BME280;6743;49.934;9.138;2023-07-30T03:12:24;99945.34;;;19.67;100.00
13348;BME280;6743;49.934;9.138;2023-07-30T03:14:50;99966.88;;;19.79;100.00
13348;BME280;6743;49.934;9.138;2023-07-30T03:17:16;99971.72;;;19.77;100.00
13348;BME280;6743;49.934;9.138;2023-07-30T03:19:42;99968.41;;;19.75;100.00
13348;BME280;6743;49.934;9.138;2023-07-30T03:22:09;99969.47;;;19.74;100.00
13348;BME280;6743;49.934;9.138;2023-07-30T03:24:35;99968.66;;;19.74;100.00
13348;BME280;6743;49.934;9.138;2023-07-30T03:27:01;99955.41;;;19.60;100.00
13348;BME280;6743;49.934;9.138;2023-07-30T03:29:26;99975.06;;;19.73;100.00
13348;BME280;6743;49.934;9.138;2023-07-30T03:31:52;99983.16;;;19.73;100.00
13348;BME280;6743;49.934;9.138;2023-07-30T03:34:18;99969.06;;;19.59;100.00
13348;BME280;6743;49.934;9.138;2023-07-30T03:36:44;99982.81;;;19.69;100.00
13348;BME280;6743;49.934;9.138;2023-07-30T03:39:11;99988.41;;;19.67;100.00
13348;BME280;6743;49.934;9.138;2023-07-30T03:41:37;99985.72;;;19.67;100.00
13348;BME280;6743;49.934;9.138;2023-07-30T03:44:03;99996.47;;;19.67;100.00
13348;BME280;6743;49.934;9.138;2023-07-30T03:46:29;99988.63;;;19.66;100.00
13348;BME280;6743;49.934;9.138;2023-07-30T03:48:55;99985.59;;;19.62;100.00
13348;BME280;6743;49.934;9.138;2023-07-30T03:51:22;99979.03;;;19.58;100.00
13348;BME280;6743;49.934;9.138;2023-07-30T03:53:48;99991.66;;;19.58;100.00
13348;BME280;6743;49.934;9.138;2023-07-30T03:56:15;99993.78;;;19.56;100.00
13348;BME280;6743;49.934;9.138;2023-07-30T03:58:41;99988.84;;;19.53;100.00
13348;BME280;6743;49.934;9.138;2023-07-30T04:01:07;99988.84;;;19.53;100.00
13348;BME280;6743;49.934;9.138;2023-07-30T04:03:35;99979.59;;;19.49;100.00
13348;BME280;6743;49.934;9.138;2023-07-30T04:06:01;99982.50;;;19.47;100.00
13348;BME280;6743;49.934;9.138;2023-07-30T04:08:27;99986.84;;;19.48;100.00
13348;BME280;6743;49.934;9.138;2023-07-30T04:10:53;99979.81;;;19.47;100.00
13348;BME280;6743;49.934;9.138;2023-07-30T04:13:20;99970.91;;;19.47;100.00
13348;BME280;6743;49.934;9.138;2023-07-30T04:15:47;99969.06;;;19.47;100.00
13348;BME280;6743;49.934;9.138;2023-07-30T04:18:13;99974.22;;;19.49;100.00
13348;BME280;6743;49.934;9.138;2023-07-30T04:20:39;99975.47;;;19.46;100.00
13348;BME280;6743;49.934;9.138;2023-07-30T04:23:05;99987.34;;;19.39;100.00
13348;BME280;6743;49.934;9.138;2023-07-30T04:25:31;99982.44;;;19.36;100.00
13348;BME280;6743;49.934;9.138;2023-07-30T04:27:57;99983.50;;;19.35;100.00
13348;BME280;6743;49.934;9.138;2023-07-30T04:30:24;99994.47;;;19.33;100.00
13348;BME280;6743;49.934;9.138;2023-07-30T04:32:50;99995.75;;;19.31;100.00
13348;BME280;6743;49.934;9.138;2023-07-30T04:35:16;99990.34;;;19.31;100.00
13348;BME280;6743;49.934;9.138;2023-07-30T04:37:42;99993.03;;;19.31;100.00
13348;BME280;6743;49.934;9.138;2023-07-30T04:40:09;100001.94;;;19.31;100.00
13348;BME280;6743;49.934;9.138;2023-07-30T04:42:35;100004.84;;;19.29;100.00
13348;BME280;6743;49.934;9.138;2023-07-30T04:45:01;100001.94;;;19.31;100.00
13348;BME280;6743;49.934;9.138;2023-07-30T04:47:27;100013.31;;;19.33;100.00
13348;BME280;6743;49.934;9.138;2023-07-30T04:49:53;100007.91;;;19.33;100.00
13348;BME280;6743;49.934;9.138;2023-07-30T04:52:19;100002.31;;;19.35;100.00
13348;BME280;6743;49.934;9.138;2023-07-30T04:54:45;99995.66;;;19.37;100.00
13348;BME280;6743;49.934;9.138;2023-07-30T04:57:11;99997.28;;;19.38;100.00
13348;BME280;6743;49.934;9.138;2023-07-30T04:59:37;100018.94;;;19.43;100.00
13348;BME280;6743;49.934;9.138;2023-07-30T05:02:03;100024.72;;;19.47;100.00
13348;BME280;6743;49.934;9.138;2023-07-30T05:04:30;100021.00;;;19.48;100.00
13348;BME280;6743;49.934;9.138;2023-07-30T05:06:56;100023.00;;;19.52;100.00
13348;BME280;6743;49.934;9.138;2023-07-30T05:09:22;100021.50;;;19.56;100.00
13348;BME280;6743;49.934;9.138;2023-07-30T05:11:48;100024.75;;;19.58;100.00
13348;BME280;6743;49.934;9.138;2023-07-30T05:14:14;100022.91;;;19.59;100.00
13348;BME280;6743;49.934;9.138;2023-07-30T05:16:40;100022.69;;;19.60;100.00
13348;BME280;6743;49.934;9.138;2023-07-30T05:19:06;100035.69;;;19.63;100.00
13348;BME280;6743;49.934;9.138;2023-07-30T05:21:33;100033.78;;;19.64;100.00
13348;BME280;6743;49.934;9.138;2023-07-30T05:23:59;99998.84;;;19.46;100.00
13348;BME280;6743;49.934;9.138;2023-07-30T05:26:24;100020.94;;;19.66;100.00
13348;BME280;6743;49.934;9.138;2023-07-30T05:28:50;100021.53;;;19.68;100.00
13348;BME280;6743;49.934;9.138;2023-07-30T05:31:16;100021.06;;;19.71;100.00
13348;BME280;6743;49.934;9.138;2023-07-30T05:33:42;100016.28;;;19.73;100.00
13348;BME280;6743;49.934;9.138;2023-07-30T05:36:08;100017.09;;;19.74;100.00
13348;BME280;6743;49.934;9.138;2023-07-30T05:38:35;100023.31;;;19.74;100.00
13348;BME280;6743;49.934;9.138;2023-07-30T05:41:01;100021.22;;;19.76;100.00
13348;BME280;6743;49.934;9.138;2023-07-30T05:43:27;100019.91;;;19.79;100.00
13348;BME280;6743;49.934;9.138;2023-07-30T05:45:53;100019.47;;;19.82;100.00
13348;BME280;6743;49.934;9.138;2023-07-30T05:48:19;100011.97;;;19.84;100.00
13348;BME280;6743;49.934;9.138;2023-07-30T05:50:45;100013.97;;;19.88;100.00
13348;BME280;6743;49.934;9.138;2023-07-30T05:53:11;100008.94;;;19.92;100.00
13348;BME280;6743;49.934;9.138;2023-07-30T05:55:38;100019.03;;;19.96;100.00
13348;BME280;6743;49.934;9.138;2023-07-30T05:58:04;100009.63;;;19.99;100.00
13348;BME280;6743;49.934;9.138;2023-07-30T06:00:30;100007.53;;;20.01;100.00
13348;BME280;6743;49.934;9.138;2023-07-30T06:02:56;99995.72;;;20.02;100.00
13348;BME280;6743;49.934;9.138;2023-07-30T06:05:22;100000.41;;;20.06;100.00
13348;BME280;6743;49.934;9.138;2023-07-30T06:07:48;100000.78;;;20.10;100.00
13348;BME280;6743;49.934;9.138;2023-07-30T06:10:14;100007.53;;;20.13;100.00
13348;BME280;6743;49.934;9.138;2023-07-30T06:12:40;100005.44;;;20.15;100.00
13348;BME280;6743;49.934;9.138;2023-07-30T06:15:09;100011.66;;;20.15;100.00
13348;BME280;6743;49.934;9.138;2023-07-30T06:17:35;100020.56;;;20.16;100.00
13348;BME280;6743;49.934;9.138;2023-07-30T06:20:01;100011.44;;;20.17;100.00
13348;BME280;6743;49.934;9.138;2023-07-30T06:22:28;100012.81;;;20.19;100.00
13348;BME280;6743;49.934;9.138;2023-07-30T06:24:54;100015.88;;;20.23;100.00
13348;BME280;6743;49.934;9.138;2023-07-30T06:27:20;100018.91;;;20.26;100.00
13348;BME280;6743;49.934;9.138;2023-07-30T06:29:47;100021.59;;;20.26;100.00
13348;BME280;6743;49.934;9.138;2023-07-30T06:32:13;100019.28;;;20.30;100.00
13348;BME280;6743;49.934;9.138;2023-07-30T06:34:39;100009.34;;;20.30;100.00
13348;BME280;6743;49.934;9.138;2023-07-30T06:37:05;99985.31;;;20.17;100.00
13348;BME280;6743;49.934;9.138;2023-07-30T06:39:34;99968.94;;;20.19;100.00
13348;BME280;6743;49.934;9.138;2023-07-30T06:42:00;100014.41;;;20.50;100.00
13348;BME280;6743;49.934;9.138;2023-07-30T06:44:26;100006.19;;;20.57;100.00
13348;BME280;6743;49.934;9.138;2023-07-30T06:46:53;100014.63;;;20.60;100.00
13348;BME280;6743;49.934;9.138;2023-07-30T06:49:19;100018.47;;;20.64;100.00
13348;BME280;6743;49.934;9.138;2023-07-30T06:51:45;100016.13;;;20.68;100.00
13348;BME280;6743;49.934;9.138;2023-07-30T06:54:11;100002.31;;;20.64;100.00
13348;BME280;6743;49.934;9.138;2023-07-30T06:56:37;100017.06;;;20.73;100.00
13348;BME280;6743;49.934;9.138;2023-07-30T06:59:06;100016.59;;;20.76;100.00
13348;BME280;6743;49.934;9.138;2023-07-30T07:01:32;100016.59;;;20.76;100.00
13348;BME280;6743;49.934;9.138;2023-07-30T07:03:59;100017.50;;;20.82;100.00
13348;BME280;6743;49.934;9.138;2023-07-30T07:06:25;100024.69;;;20.88;100.00
13348;BME280;6743;49.934;9.138;2023-07-30T07:08:51;100018.66;;;20.98;100.00
13348;BME280;6743;49.934;9.138;2023-07-30T07:11:17;100021.44;;;21.03;100.00
13348;BME280;6743;49.934;9.138;2023-07-30T07:13:43;100021.81;;;21.06;100.00
13348;BME280;6743;49.934;9.138;2023-07-30T07:16:09;100025.41;;;21.12;100.00
13348;BME280;6743;49.934;9.138;2023-07-30T07:18:35;100014.44;;;21.02;100.00
13348;BME280;6743;49.934;9.138;2023-07-30T07:21:01;100017.81;;;21.20;100.00
13348;BME280;6743;49.934;9.138;2023-07-30T07:23:28;100008.19;;;21.13;100.00
13348;BME280;6743;49.934;9.138;2023-07-30T07:25:54;100018.72;;;21.26;100.00
13348;BME280;6743;49.934;9.138;2023-07-30T07:28:20;100020.94;;;21.29;100.00
13348;BME280;6743;49.934;9.138;2023-07-30T07:30:46;100037.81;;;21.36;100.00
13348;BME280;6743;49.934;9.138;2023-07-30T07:33:13;100015.78;;;21.28;100.00
13348;BME280;6743;49.934;9.138;2023-07-30T07:35:39;100029.81;;;21.41;100.00
13348;BME280;6743;49.934;9.138;2023-07-30T07:38:06;100020.31;;;21.39;100.00
13348;BME280;6743;49.934;9.138;2023-07-30T07:40:36;100034.00;;;21.49;100.00
13348;BME280;6743;49.934;9.138;2023-07-30T07:43:02;100033.28;;;21.53;100.00
13348;BME280;6743;49.934;9.138;2023-07-30T07:45:28;99977.56;;;21.19;100.00
13348;BME280;6743;49.934;9.138;2023-07-30T07:47:55;100042.28;;;21.59;100.00
13348;BME280;6743;49.934;9.138;2023-07-30T07:50:21;100031.25;;;21.60;100.00
13348;BME280;6743;49.934;9.138;2023-07-30T07:52:47;100031.91;;;21.68;100.00
13348;BME280;6743;49.934;9.138;2023-07-30T07:55:14;100042.81;;;21.73;100.00
13348;BME280;6743;49.934;9.138;2023-07-30T07:57:40;100025.78;;;21.72;100.00
13348;BME280;6743;49.934;9.138;2023-07-30T08:00:07;100042.50;;;21.86;100.00
13348;BME280;6743;49.934;9.138;2023-07-30T08:02:34;100045.47;;;21.84;100.00
13348;BME280;6743;49.934;9.138;2023-07-30T08:05:00;100025.94;;;21.66;100.00
13348;BME280;6743;49.934;9.138;2023-07-30T08:07:26;100031.47;;;21.59;100.00
13348;BME280;6743;49.934;9.138;2023-07-30T08:09:52;100013.94;;;21.45;100.00
13348;BME280;6743;49.934;9.138;2023-07-30T08:12:20;100001.81;;;21.31;100.00
13348;BME280;6743;49.934;9.138;2023-07-30T08:14:47;100055.09;;;21.52;100.00
13348;BME280;6743;49.934;9.138;2023-07-30T08:17:13;100036.13;;;21.47;100.00
13348;BME280;6743;49.934;9.138;2023-07-30T08:19:39;100022.91;;;21.34;100.00
13348;BME280;6743;49.934;9.138;2023-07-30T08:22:06;100045.66;;;21.38;100.00
13348;BME280;6743;49.934;9.138;2023-07-30T08:24:33;100058.47;;;21.31;100.00
13348;BME280;6743;49.934;9.138;2023-07-30T08:26:59;100076.66;;;21.23;100.00
13348;BME280;6743;49.934;9.138;2023-07-30T08:29:26;100066.25;;;21.04;100.00
13348;BME280;6743;49.934;9.138;2023-07-30T08:31:52;100078.34;;;20.90;100.00
13348;BME280;6743;49.934;9.138;2023-07-30T08:34:18;100086.34;;;20.73;100.00
13348;BME280;6743;49.934;9.138;2023-07-30T08:36:44;100078.97;;;20.45;100.00
13348;BME280;6743;49.934;9.138;2023-07-30T08:39:10;100081.78;;;20.09;100.00
13348;BME280;6743;49.934;9.138;2023-07-30T08:41:36;100082.00;;;19.95;100.00
13348;BME280;6743;49.934;9.138;2023-07-30T08:44:02;100071.56;;;19.87;100.00
13348;BME280;6743;49.934;9.138;2023-07-30T08:46:29;100061.31;;;19.78;100.00
13348;BME280;6743;49.934;9.138;2023-07-30T08:48:55;100046.00;;;19.78;100.00
13348;BME280;6743;49.934;9.138;2023-07-30T08:51:23;100050.94;;;19.81;100.00
13348;BME280;6743;49.934;9.138;2023-07-30T08:53:51;100045.81;;;19.91;100.00
13348;BME280;6743;49.934;9.138;2023-07-30T08:56:18;100042.56;;;20.01;100.00
13348;BME280;6743;49.934;9.138;2023-07-30T08:58:44;100054.88;;;20.09;100.00
13348;BME280;6743;49.934;9.138;2023-07-30T09:01:12;100059.31;;;20.15;100.00
13348;BME280;6743;49.934;9.138;2023-07-30T09:03:41;100065.31;;;20.17;100.00
13348;BME280;6743;49.934;9.138;2023-07-30T09:06:07;100065.53;;;20.15;100.00
13348;BME280;6743;49.934;9.138;2023-07-30T09:08:33;100066.47;;;20.21;100.00
13348;BME280;6743;49.934;9.138;2023-07-30T09:11:06;100072.78;;;20.26;100.00
13348;BME280;6743;49.934;9.138;2023-07-30T09:13:36;100075.88;;;20.30;100.00
13348;BME280;6743;49.934;9.138;2023-07-30T09:16:08;100076.12;;;20.40;100.00
13348;BME280;6743;49.934;9.138;2023-07-30T09:18:39;100063.13;;;20.49;100.00
13348;BME280;6743;49.934;9.138;2023-07-30T09:21:06;100070.84;;;20.68;100.00
13348;BME280;6743;49.934;9.138;2023-07-30T09:23:32;100062.91;;;20.73;100.00
13348;BME280;6743;49.934;9.138;2023-07-30T09:25:58;100057.50;;;20.85;100.00
13348;BME280;6743;49.934;9.138;2023-07-30T09:28:30;100058.53;;;20.96;100.00
13348;BME280;6743;49.934;9.138;2023-07-30T09:30:59;100049.28;;;20.92;100.00
13348;BME280;6743;49.934;9.138;2023-07-30T09:33:26;100040.22;;;20.98;100.00
13348;BME280;6743;49.934;9.138;2023-07-30T09:35:53;100044.06;;;21.13;100.00
13348;BME280;6743;49.934;9.138;2023-07-30T09:38:20;100046.31;;;21.16;100.00
13348;BME280;6743;49.934;9.138;2023-07-30T09:40:46;100043.91;;;21.32;100.00
13348;BME280;6743;49.934;9.138;2023-07-30T09:43:15;100052.94;;;21.37;100.00
13348;BME280;6743;49.934;9.138;2023-07-30T09:45:45;100050.91;;;21.44;100.00
13348;BME280;6743;49.934;9.138;2023-07-30T09:48:11;100061.56;;;21.51;100.00
13348;BME280;6743;49.934;9.138;2023-07-30T09:50:37;100046.44;;;21.50;100.00
13348;BME280;6743;49.934;9.138;2023-07-30T09:53:04;100053.31;;;21.57;100.00
13348;BME280;6743;49.934;9.138;2023-07-30T09:55:34;100036.72;;;21.49;100.00
13348;BME280;6743;49.934;9.138;2023-07-30T09:58:00;100046.38;;;21.61;100.00
13348;BME280;6743;49.934;9.138;2023-07-30T10:00:27;100045.09;;;21.64;100.00
13348;BME280;6743;49.934;9.138;2023-07-30T10:02:58;100048.13;;;21.68;100.00
13348;BME280;6743;49.934;9.138;2023-07-30T10:05:29;100061.47;;;21.74;100.00
13348;BME280;6743;49.934;9.138;2023-07-30T10:08:09;100012.97;;;21.51;100.00
13348;BME280;6743;49.934;9.138;2023-07-30T10:10:36;100055.09;;;21.80;100.00
13348;BME280;6743;49.934;9.138;2023-07-30T10:13:06;100047.88;;;21.86;100.00
13348;BME280;6743;49.934;9.138;2023-07-30T10:15:34;100044.25;;;21.92;100.00
13348;BME280;6743;49.934;9.138;2023-07-30T10:18:00;100025.44;;;21.97;100.00
13348;BME280;6743;49.934;9.138;2023-07-30T10:20:27;100040.50;;;22.10;100.00
13348;BME280;6743;49.934;9.138;2023-07-30T10:22:57;100045.84;;;22.05;100.00
13348;BME280;6743;49.934;9.138;2023-07-30T10:25:30;100082.59;;;21.77;100.00
13348;BME280;6743;49.934;9.138;2023-07-30T10:27:58;100111.66;;;21.58;100.00
13348;BME280;6743;49.934;9.138;2023-07-30T10:30:30;100127.25;;;21.28;100.00
13348;BME280;6743;49.934;9.138;2023-07-30T10:33:01;100126.91;;;21.01;100.00
13348;BME280;6743;49.934;9.138;2023-07-30T10:35:46;100131.81;;;20.93;100.00
13348;BME280;6743;49.934;9.138;2023-07-30T10:38:14;100111.78;;;20.65;100.00
13348;BME280;6743;49.934;9.138;2023-07-30T10:40:41;100135.47;;;20.87;100.00
13348;BME280;6743;49.934;9.138;2023-07-30T10:43:15;100142.59;;;20.93;100.00
13348;BME280;6743;49.934;9.138;2023-07-30T10:45:48;100138.59;;;20.95;100.00
13348;BME280;6743;49.934;9.138;2023-07-30T10:48:14;100160.06;;;20.90;100.00
13348;BME280;6743;49.934;9.138;2023-07-30T10:50:40;100167.94;;;20.92;100.00
13348;BME280;6743;49.934;9.138;2023-07-30T10:53:07;100161.59;;;20.86;100.00
13348;BME280;6743;49.934;9.138;2023-07-30T10:55:34;100172.59;;;20.96;100.00
13348;BME280;6743;49.934;9.138;2023-07-30T10:58:04;100173.06;;;20.81;100.00
13348;BME280;6743;49.934;9.138;2023-07-30T11:00:31;100166.50;;;20.89;100.00
13348;BME280;6743;49.934;9.138;2023-07-30T11:02:57;100179.16;;;20.89;100.00
13348;BME280;6743;49.934;9.138;2023-07-30T11:05:23;100174.25;;;20.97;100.00
13348;BME280;6743;49.934;9.138;2023-07-30T11:07:51;100182.00;;;21.05;100.00
13348;BME280;6743;49.934;9.138;2023-07-30T11:10:17;100192.69;;;21.00;100.00
13348;BME280;6743;49.934;9.138;2023-07-30T11:12:43;100183.41;;;20.96;100.00
13348;BME280;6743;49.934;9.138;2023-07-30T11:15:10;100204.53;;;20.88;100.00
13348;BME280;6743;49.934;9.138;2023-07-30T11:17:36;100177.78;;;20.74;100.00
13348;BME280;6743;49.934;9.138;2023-07-30T11:20:03;100188.69;;;20.79;100.00
13348;BME280;6743;49.934;9.138;2023-07-30T11:22:30;100200.13;;;20.75;100.00
13348;BME280;6743;49.934;9.138;2023-07-30T11:24:57;100190.44;;;20.86;100.00
13348;BME280;6743;49.934;9.138;2023-07-30T11:27:23;100199.00;;;20.94;100.00
13348;BME280;6743;49.934;9.138;2023-07-30T11:29:54;100189.16;;;21.00;100.00
13348;BME280;6743;49.934;9.138;2023-07-30T11:32:21;100202.63;;;21.00;100.00
13348;BME280;6743;49.934;9.138;2023-07-30T11:34:52;100177.91;;;20.79;100.00
13348;BME280;6743;49.934;9.138;2023-07-30T11:37:20;100191.03;;;20.99;100.00
13348;BME280;6743;49.934;9.138;2023-07-30T11:39:47;100194.56;;;21.00;100.00
13348;BME280;6743;49.934;9.138;2023-07-30T11:42:13;100189.75;;;21.13;100.00
13348;BME280;6743;49.934;9.138;2023-07-30T11:44:41;100191.38;;;21.14;100.00
13348;BME280;6743;49.934;9.138;2023-07-30T11:47:08;100201.12;;;21.15;100.00
13348;BME280;6743;49.934;9.138;2023-07-30T11:49:35;100200.31;;;21.15;100.00
13348;BME280;6743;49.934;9.138;2023-07-30T11:52:06;100197.50;;;21.21;100.00
13348;BME280;6743;49.934;9.138;2023-07-30T11:54:33;100214.63;;;21.27;100.00
13348;BME280;6743;49.934;9.138;2023-07-30T11:56:59;100168.88;;;21.32;100.00
13348;BME280;6743;49.934;9.138;2023-07-30T11:59:25;100188.66;;;21.61;100.00
13348;BME280;6743;49.934;9.138;2023-07-30T12:01:51;100201.75;;;21.81;100.00
13348;BME280;6743;49.934;9.138;2023-07-30T12:04:18;100217.25;;;21.74;100.00
13348;BME280;6743;49.934;9.138;2023-07-30T12:06:46;100216.66;;;21.72;100.00
13348;BME280;6743;49.934;9.138;2023-07-30T12:09:13;100217.63;;;21.77;100.00
13348;BME280;6743;49.934;9.138;2023-07-30T12:11:50;100224.41;;;21.80;100.00
13348;BME280;6743;49.934;9.138;2023-07-30T12:14:17;100241.47;;;21.69;100.00
13348;BME280;6743;49.934;9.138;2023-07-30T12:16:43;100232.56;;;21.56;100.00
13348;BME280;6743;49.934;9.138;2023-07-30T12:19:09;100231.50;;;21.46;100.00
13348;BME280;6743;49.934;9.138;2023-07-30T12:21:35;100216.72;;;21.48;100.00
13348;BME280;6743;49.934;9.138;2023-07-30T12:24:02;100226.81;;;21.53;100.00
13348;BME280;6743;49.934;9.138;2023-07-30T12:26:29;100222.00;;;21.55;100.00
13348;BME280;6743;49.934;9.138;2023-07-30T12:28:55;100236.41;;;21.60;100.00
13348;BME280;6743;49.934;9.138;2023-07-30T12:31:21;100242.41;;;21.51;100.00
13348;BME280;6743;49.934;9.138;2023-07-30T12:33:47;100248.66;;;21.40;100.00
13348;BME280;6743;49.934;9.138;2023-07-30T12:36:13;100251.47;;;21.33;100.00
13348;BME280;6743;49.934;9.138;2023-07-30T12:38:40;100255.34;;;21.26;100.00
13348;BME280;6743;49.934;9.138;2023-07-30T12:41:07;100252.38;;;21.15;100.00
13348;BME280;6743;49.934;9.138;2023-07-30T12:43:33;100275.84;;;21.15;100.00
13348;BME280;6743;49.934;9.138;2023-07-30T12:45:59;100281.09;;;21.10;100.00
13348;BME280;6743;49.934;9.138;2023-07-30T12:48:25;100267.87;;;21.08;100.00
13348;BME280;6743;49.934;9.138;2023-07-30T12:50:51;100267.37;;;21.11;100.00